sensor_id;sensor_type;location;lat;lon;timestamp;temperature;humidity
17080;DHT22;8655;57.106;-2.088;2022-07-10T00:00:40;22.40;60.80
17080;DHT22;8655;57.106;-2.088;2022-07-10T00:03:06;22.30;60.70
17080;DHT22;8655;57.106;-2.088;2022-07-10T00:05:32;22.30;60.70
17080;DHT22;8655;57.106;-2.088;2022-07-10T00:07:59;22.40;60.80
17080;DHT22;8655;57.106;-2.088;2022-07-10T00:10:25;22.40;60.80
17080;DHT22;8655;57.106;-2.088;2022-07-10T00:12:51;22.40;60.80
17080;DHT22;8655;57.106;-2.088;2022-07-10T00:15:18;22.30;60.70
17080;DHT22;8655;57.106;-2.088;2022-07-10T00:17:44;22.30;60.80
17080;DHT22;8655;57.106;-2.088;2022-07-10T00:20:11;22.30;60.70
17080;DHT22;8655;57.106;-2.088;2022-07-10T00:22:38;22.30;60.70
17080;DHT22;8655;57.106;-2.088;2022-07-10T00:25:05;22.30;60.70
17080;DHT22;8655;57.106;-2.088;2022-07-10T00:27:31;22.30;60.70
17080;DHT22;8655;57.106;-2.088;2022-07-10T00:29:57;22.30;60.80
17080;DHT22;8655;57.106;-2.088;2022-07-10T00:32:23;22.30;60.80
17080;DHT22;8655;57.106;-2.088;2022-07-10T00:34:49;22.30;60.80
17080;DHT22;8655;57.106;-2.088;2022-07-10T00:37:15;22.30;60.70
17080;DHT22;8655;57.106;-2.088;2022-07-10T00:39:41;22.30;60.80
17080;DHT22;8655;57.106;-2.088;2022-07-10T00:42:12;22.30;60.80
17080;DHT22;8655;57.106;-2.088;2022-07-10T00:44:39;22.30;60.80
17080;DHT22;8655;57.106;-2.088;2022-07-10T00:47:06;22.30;60.80
17080;DHT22;8655;57.106;-2.088;2022-07-10T00:49:33;22.30;60.80
17080;DHT22;8655;57.106;-2.088;2022-07-10T00:52:02;22.30;60.80
17080;DHT22;8655;57.106;-2.088;2022-07-10T00:54:29;22.30;60.80
17080;DHT22;8655;57.106;-2.088;2022-07-10T00:56:56;22.30;60.80
17080;DHT22;8655;57.106;-2.088;2022-07-10T00:59:23;22.30;60.80
17080;DHT22;8655;57.106;-2.088;2022-07-10T01:01:50;22.30;60.80
17080;DHT22;8655;57.106;-2.088;2022-07-10T01:04:16;22.30;60.80
17080;DHT22;8655;57.106;-2.088;2022-07-10T01:06:42;22.30;60.80
17080;DHT22;8655;57.106;-2.088;2022-07-10T01:09:08;22.30;60.80
17080;DHT22;8655;57.106;-2.088;2022-07-10T01:11:34;22.30;60.80
17080;DHT22;8655;57.106;-2.088;2022-07-10T01:14:01;22.30;60.80
17080;DHT22;8655;57.106;-2.088;2022-07-10T01:16:28;22.30;60.80
17080;DHT22;8655;57.106;-2.088;2022-07-10T01:18:55;22.30;60.80
17080;DHT22;8655;57.106;-2.088;2022-07-10T01:21:32;22.30;60.80
17080;DHT22;8655;57.106;-2.088;2022-07-10T01:23:58;22.30;60.80
17080;DHT22;8655;57.106;-2.088;2022-07-10T01:26:25;22.30;60.80
17080;DHT22;8655;57.106;-2.088;2022-07-10T01:28:52;22.30;60.80
17080;DHT22;8655;57.106;-2.088;2022-07-10T01:31:25;22.30;60.80
17080;DHT22;8655;57.106;-2.088;2022-07-10T01:33:52;22.30;60.80
17080;DHT22;8655;57.106;-2.088;2022-07-10T01:36:20;22.30;60.80
17080;DHT22;8655;57.106;-2.088;2022-07-10T01:38:46;22.30;60.80
17080;DHT22;8655;57.106;-2.088;2022-07-10T01:41:12;22.30;60.80
17080;DHT22;8655;57.106;-2.088;2022-07-10T01:43:38;22.30;60.80
17080;DHT22;8655;57.106;-2.088;2022-07-10T01:46:08;22.30;60.80
17080;DHT22;8655;57.106;-2.088;2022-07-10T01:48:37;22.30;60.90
17080;DHT22;8655;57.106;-2.088;2022-07-10T01:51:03;22.20;60.80
17080;DHT22;8655;57.106;-2.088;2022-07-10T01:53:30;22.30;60.80
17080;DHT22;8655;57.106;-2.088;2022-07-10T01:55:56;22.20;60.70
17080;DHT22;8655;57.106;-2.088;2022-07-10T01:58:22;22.20;60.80
17080;DHT22;8655;57.106;-2.088;2022-07-10T02:00:47;22.20;60.80
17080;DHT22;8655;57.106;-2.088;2022-07-10T02:03:13;22.20;60.80
17080;DHT22;8655;57.106;-2.088;2022-07-10T02:05:58;22.30;60.90
17080;DHT22;8655;57.106;-2.088;2022-07-10T02:08:24;22.20;60.70
17080;DHT22;8655;57.106;-2.088;2022-07-10T02:10:49;22.20;60.80
17080;DHT22;8655;57.106;-2.088;2022-07-10T02:13:15;22.20;60.80
17080;DHT22;8655;57.106;-2.088;2022-07-10T02:15:48;22.20;60.80
17080;DHT22;8655;57.106;-2.088;2022-07-10T02:18:14;22.20;60.80
17080;DHT22;8655;57.106;-2.088;2022-07-10T02:20:40;22.20;60.80
17080;DHT22;8655;57.106;-2.088;2022-07-10T02:23:05;22.20;60.80
17080;DHT22;8655;57.106;-2.088;2022-07-10T02:25:35;22.20;60.80
17080;DHT22;8655;57.106;-2.088;2022-07-10T02:28:01;22.20;60.80
17080;DHT22;8655;57.106;-2.088;2022-07-10T02:30:26;22.20;60.80
17080;DHT22;8655;57.106;-2.088;2022-07-10T02:32:52;22.20;60.80
17080;DHT22;8655;57.106;-2.088;2022-07-10T02:35:18;22.20;60.80
17080;DHT22;8655;57.106;-2.088;2022-07-10T02:37:44;22.20;60.80
17080;DHT22;8655;57.106;-2.088;2022-07-10T02:40:10;22.20;60.80
17080;DHT22;8655;57.106;-2.088;2022-07-10T02:42:36;22.20;60.80
17080;DHT22;8655;57.106;-2.088;2022-07-10T02:45:02;22.20;60.80
17080;DHT22;8655;57.106;-2.088;2022-07-10T02:47:28;22.20;60.80
17080;DHT22;8655;57.106;-2.088;2022-07-10T02:49:53;22.20;60.80
17080;DHT22;8655;57.106;-2.088;2022-07-10T02:52:19;22.20;60.80
17080;DHT22;8655;57.106;-2.088;2022-07-10T02:54:45;22.20;60.80
17080;DHT22;8655;57.106;-2.088;2022-07-10T02:59:46;22.20;60.80
17080;DHT22;8655;57.106;-2.088;2022-07-10T03:02:11;22.20;60.80
17080;DHT22;8655;57.106;-2.088;2022-07-10T03:04:37;22.20;60.80
17080;DHT22;8655;57.106;-2.088;2022-07-10T03:07:03;22.20;60.80
17080;DHT22;8655;57.106;-2.088;2022-07-10T03:09:29;22.20;60.80
17080;DHT22;8655;57.106;-2.088;2022-07-10T03:11:54;22.20;60.80
17080;DHT22;8655;57.106;-2.088;2022-07-10T03:14:20;22.20;60.80
17080;DHT22;8655;57.106;-2.088;2022-07-10T03:16:46;22.20;60.80
17080;DHT22;8655;57.106;-2.088;2022-07-10T03:19:12;22.20;60.80
17080;DHT22;8655;57.106;-2.088;2022-07-10T03:21:38;22.20;60.80
17080;DHT22;8655;57.106;-2.088;2022-07-10T03:24:04;22.20;60.80
17080;DHT22;8655;57.106;-2.088;2022-07-10T03:26:30;22.20;60.80
17080;DHT22;8655;57.106;-2.088;2022-07-10T03:28:56;22.20;60.80
17080;DHT22;8655;57.106;-2.088;2022-07-10T03:31:22;22.20;60.80
17080;DHT22;8655;57.106;-2.088;2022-07-10T03:33:48;22.20;60.80
17080;DHT22;8655;57.106;-2.088;2022-07-10T03:36:14;22.20;60.80
17080;DHT22;8655;57.106;-2.088;2022-07-10T03:38:40;22.20;60.80
17080;DHT22;8655;57.106;-2.088;2022-07-10T03:41:06;22.10;60.70
17080;DHT22;8655;57.106;-2.088;2022-07-10T03:43:32;22.10;60.80
17080;DHT22;8655;57.106;-2.088;2022-07-10T03:45:58;22.20;60.90
17080;DHT22;8655;57.106;-2.088;2022-07-10T03:48:23;22.10;60.70
17080;DHT22;8655;57.106;-2.088;2022-07-10T03:50:50;22.10;60.70
17080;DHT22;8655;57.106;-2.088;2022-07-10T03:53:17;22.10;60.70
17080;DHT22;8655;57.106;-2.088;2022-07-10T03:55:42;22.10;60.70
17080;DHT22;8655;57.106;-2.088;2022-07-10T03:58:08;22.10;60.80
17080;DHT22;8655;57.106;-2.088;2022-07-10T04:00:34;22.10;60.80
17080;DHT22;8655;57.106;-2.088;2022-07-10T04:03:05;22.10;60.80
17080;DHT22;8655;57.106;-2.088;2022-07-10T04:05:32;22.10;60.80
17080;DHT22;8655;57.106;-2.088;2022-07-10T04:07:59;22.10;60.80
17080;DHT22;8655;57.106;-2.088;2022-07-10T04:10:26;22.10;60.80
17080;DHT22;8655;57.106;-2.088;2022-07-10T04:12:52;22.10;60.80
17080;DHT22;8655;57.106;-2.088;2022-07-10T04:15:18;22.10;60.80
17080;DHT22;8655;57.106;-2.088;2022-07-10T04:17:45;22.10;60.80
17080;DHT22;8655;57.106;-2.088;2022-07-10T04:20:11;22.10;60.80
17080;DHT22;8655;57.106;-2.088;2022-07-10T04:22:37;22.10;60.80
17080;DHT22;8655;57.106;-2.088;2022-07-10T04:25:03;22.10;60.80
17080;DHT22;8655;57.106;-2.088;2022-07-10T04:27:29;22.10;60.80
17080;DHT22;8655;57.106;-2.088;2022-07-10T04:29:55;22.10;60.80
17080;DHT22;8655;57.106;-2.088;2022-07-10T04:32:21;22.10;60.80
17080;DHT22;8655;57.106;-2.088;2022-07-10T04:34:47;22.10;60.80
17080;DHT22;8655;57.106;-2.088;2022-07-10T04:37:13;22.10;60.80
17080;DHT22;8655;57.106;-2.088;2022-07-10T04:39:39;22.10;60.90
17080;DHT22;8655;57.106;-2.088;2022-07-10T04:42:06;22.10;60.80
17080;DHT22;8655;57.106;-2.088;2022-07-10T04:44:32;22.10;60.80
17080;DHT22;8655;57.106;-2.088;2022-07-10T04:46:58;22.10;60.80
17080;DHT22;8655;57.106;-2.088;2022-07-10T04:49:27;22.10;60.90
17080;DHT22;8655;57.106;-2.088;2022-07-10T04:51:52;22.10;60.80
17080;DHT22;8655;57.106;-2.088;2022-07-10T04:54:18;22.10;60.90
17080;DHT22;8655;57.106;-2.088;2022-07-10T04:56:44;22.10;60.90
17080;DHT22;8655;57.106;-2.088;2022-07-10T04:59:10;22.10;60.90
17080;DHT22;8655;57.106;-2.088;2022-07-10T05:01:36;22.10;60.90
17080;DHT22;8655;57.106;-2.088;2022-07-10T05:04:03;22.10;60.90
17080;DHT22;8655;57.106;-2.088;2022-07-10T05:06:29;22.10;60.90
17080;DHT22;8655;57.106;-2.088;2022-07-10T05:08:55;22.10;60.90
17080;DHT22;8655;57.106;-2.088;2022-07-10T05:11:21;22.10;60.90
17080;DHT22;8655;57.106;-2.088;2022-07-10T05:13:47;22.10;60.90
17080;DHT22;8655;57.106;-2.088;2022-07-10T05:16:17;22.10;60.90
17080;DHT22;8655;57.106;-2.088;2022-07-10T05:18:43;22.10;60.90
17080;DHT22;8655;57.106;-2.088;2022-07-10T05:21:09;22.10;60.90
17080;DHT22;8655;57.106;-2.088;2022-07-10T05:23:35;22.10;60.90
17080;DHT22;8655;57.106;-2.088;2022-07-10T05:26:00;22.10;60.90
17080;DHT22;8655;57.106;-2.088;2022-07-10T05:28:26;22.10;60.90
17080;DHT22;8655;57.106;-2.088;2022-07-10T05:30:52;22.10;60.90
17080;DHT22;8655;57.106;-2.088;2022-07-10T05:33:18;22.10;60.90
17080;DHT22;8655;57.106;-2.088;2022-07-10T05:35:44;22.10;60.90
17080;DHT22;8655;57.106;-2.088;2022-07-10T05:38:10;22.10;60.90
17080;DHT22;8655;57.106;-2.088;2022-07-10T05:40:36;22.10;60.90
17080;DHT22;8655;57.106;-2.088;2022-07-10T05:43:02;22.10;60.90
17080;DHT22;8655;57.106;-2.088;2022-07-10T05:45:28;22.10;60.90
17080;DHT22;8655;57.106;-2.088;2022-07-10T05:47:54;22.10;60.90
17080;DHT22;8655;57.106;-2.088;2022-07-10T05:50:19;22.10;60.90
17080;DHT22;8655;57.106;-2.088;2022-07-10T05:52:45;22.10;60.90
17080;DHT22;8655;57.106;-2.088;2022-07-10T05:55:11;22.10;60.90
17080;DHT22;8655;57.106;-2.088;2022-07-10T05:57:37;22.10;60.90
17080;DHT22;8655;57.106;-2.088;2022-07-10T06:00:04;22.10;60.90
17080;DHT22;8655;57.106;-2.088;2022-07-10T06:02:31;22.10;60.90
17080;DHT22;8655;57.106;-2.088;2022-07-10T06:04:56;22.10;60.90
17080;DHT22;8655;57.106;-2.088;2022-07-10T06:07:22;22.10;60.90
17080;DHT22;8655;57.106;-2.088;2022-07-10T06:09:48;22.10;60.90
17080;DHT22;8655;57.106;-2.088;2022-07-10T06:12:14;22.10;61.00
17080;DHT22;8655;57.106;-2.088;2022-07-10T06:14:41;22.10;60.90
17080;DHT22;8655;57.106;-2.088;2022-07-10T06:17:07;22.10;60.90
17080;DHT22;8655;57.106;-2.088;2022-07-10T06:19:33;22.10;60.90
17080;DHT22;8655;57.106;-2.088;2022-07-10T06:21:59;22.10;60.90
17080;DHT22;8655;57.106;-2.088;2022-07-10T06:24:43;22.10;60.90
17080;DHT22;8655;57.106;-2.088;2022-07-10T06:27:09;22.10;60.90
17080;DHT22;8655;57.106;-2.088;2022-07-10T06:29:35;22.10;60.90
17080;DHT22;8655;57.106;-2.088;2022-07-10T06:32:01;22.10;60.90
17080;DHT22;8655;57.106;-2.088;2022-07-10T06:34:26;22.10;60.90
17080;DHT22;8655;57.106;-2.088;2022-07-10T06:36:52;22.10;60.90
17080;DHT22;8655;57.106;-2.088;2022-07-10T06:39:18;22.10;60.90
17080;DHT22;8655;57.106;-2.088;2022-07-10T06:41:44;22.10;60.90
17080;DHT22;8655;57.106;-2.088;2022-07-10T06:44:10;22.10;60.90
17080;DHT22;8655;57.106;-2.088;2022-07-10T06:46:36;22.10;60.90
17080;DHT22;8655;57.106;-2.088;2022-07-10T06:49:02;22.10;60.90
17080;DHT22;8655;57.106;-2.088;2022-07-10T06:51:28;22.10;60.90
17080;DHT22;8655;57.106;-2.088;2022-07-10T06:53:55;22.10;60.90
17080;DHT22;8655;57.106;-2.088;2022-07-10T06:56:21;22.10;60.90
17080;DHT22;8655;57.106;-2.088;2022-07-10T06:58:47;22.10;60.90
17080;DHT22;8655;57.106;-2.088;2022-07-10T07:01:13;22.10;60.90
17080;DHT22;8655;57.106;-2.088;2022-07-10T07:03:38;22.10;60.90
17080;DHT22;8655;57.106;-2.088;2022-07-10T07:06:04;22.10;60.90
17080;DHT22;8655;57.106;-2.088;2022-07-10T07:08:30;22.10;60.90
17080;DHT22;8655;57.106;-2.088;2022-07-10T07:10:56;22.10;60.90
17080;DHT22;8655;57.106;-2.088;2022-07-10T07:13:22;22.10;60.90
17080;DHT22;8655;57.106;-2.088;2022-07-10T07:15:48;22.10;60.90
17080;DHT22;8655;57.106;-2.088;2022-07-10T07:18:23;22.10;60.90
17080;DHT22;8655;57.106;-2.088;2022-07-10T07:21:00;22.10;60.90
17080;DHT22;8655;57.106;-2.088;2022-07-10T07:23:44;22.10;60.90
17080;DHT22;8655;57.106;-2.088;2022-07-10T07:26:10;22.10;60.90
17080;DHT22;8655;57.106;-2.088;2022-07-10T07:28:36;22.10;60.90
17080;DHT22;8655;57.106;-2.088;2022-07-10T07:31:02;22.10;60.90
17080;DHT22;8655;57.106;-2.088;2022-07-10T07:33:28;22.10;60.90
17080;DHT22;8655;57.106;-2.088;2022-07-10T07:35:54;22.10;60.90
17080;DHT22;8655;57.106;-2.088;2022-07-10T07:38:20;22.10;60.90
17080;DHT22;8655;57.106;-2.088;2022-07-10T07:40:46;22.10;60.90
17080;DHT22;8655;57.106;-2.088;2022-07-10T07:43:12;22.10;60.90
17080;DHT22;8655;57.106;-2.088;2022-07-10T07:45:38;22.10;60.90
17080;DHT22;8655;57.106;-2.088;2022-07-10T07:48:04;22.10;60.90
17080;DHT22;8655;57.106;-2.088;2022-07-10T07:50:32;22.10;60.90
17080;DHT22;8655;57.106;-2.088;2022-07-10T07:52:59;22.10;60.90
17080;DHT22;8655;57.106;-2.088;2022-07-10T07:55:26;22.10;60.90
17080;DHT22;8655;57.106;-2.088;2022-07-10T07:57:54;22.10;60.90
17080;DHT22;8655;57.106;-2.088;2022-07-10T08:00:21;22.10;60.90
17080;DHT22;8655;57.106;-2.088;2022-07-10T08:02:49;22.10;60.90
17080;DHT22;8655;57.106;-2.088;2022-07-10T08:05:15;22.10;60.90
17080;DHT22;8655;57.106;-2.088;2022-07-10T08:07:47;22.10;60.90
17080;DHT22;8655;57.106;-2.088;2022-07-10T08:10:15;22.10;60.90
17080;DHT22;8655;57.106;-2.088;2022-07-10T08:12:42;22.10;60.90
17080;DHT22;8655;57.106;-2.088;2022-07-10T08:15:10;22.10;60.90
17080;DHT22;8655;57.106;-2.088;2022-07-10T08:17:36;22.10;60.90
17080;DHT22;8655;57.106;-2.088;2022-07-10T08:20:03;22.20;61.00
17080;DHT22;8655;57.106;-2.088;2022-07-10T08:22:29;22.20;61.10
17080;DHT22;8655;57.106;-2.088;2022-07-10T08:24:55;22.20;61.00
17080;DHT22;8655;57.106;-2.088;2022-07-10T08:27:22;22.20;61.10
17080;DHT22;8655;57.106;-2.088;2022-07-10T08:29:48;22.20;61.10
17080;DHT22;8655;57.106;-2.088;2022-07-10T08:32:14;22.20;61.10
17080;DHT22;8655;57.106;-2.088;2022-07-10T08:34:39;22.20;61.00
17080;DHT22;8655;57.106;-2.088;2022-07-10T08:37:05;22.20;61.00
17080;DHT22;8655;57.106;-2.088;2022-07-10T08:39:31;22.20;61.00
17080;DHT22;8655;57.106;-2.088;2022-07-10T08:41:58;22.20;61.10
17080;DHT22;8655;57.106;-2.088;2022-07-10T08:44:23;22.20;61.00
17080;DHT22;8655;57.106;-2.088;2022-07-10T08:46:49;22.20;61.00
17080;DHT22;8655;57.106;-2.088;2022-07-10T08:49:16;22.20;61.10
17080;DHT22;8655;57.106;-2.088;2022-07-10T08:54:14;22.20;61.10
17080;DHT22;8655;57.106;-2.088;2022-07-10T08:56:43;22.20;61.00
17080;DHT22;8655;57.106;-2.088;2022-07-10T08:59:09;22.20;61.00
17080;DHT22;8655;57.106;-2.088;2022-07-10T09:01:38;22.20;61.10
17080;DHT22;8655;57.106;-2.088;2022-07-10T09:04:04;22.20;61.10
17080;DHT22;8655;57.106;-2.088;2022-07-10T09:06:30;22.20;61.10
17080;DHT22;8655;57.106;-2.088;2022-07-10T09:09:04;22.20;61.10
17080;DHT22;8655;57.106;-2.088;2022-07-10T09:11:31;22.20;61.10
17080;DHT22;8655;57.106;-2.088;2022-07-10T09:13:59;22.20;61.00
17080;DHT22;8655;57.106;-2.088;2022-07-10T09:16:33;22.20;61.10
17080;DHT22;8655;57.106;-2.088;2022-07-10T09:19:21;22.20;61.10
17080;DHT22;8655;57.106;-2.088;2022-07-10T09:21:50;22.20;61.10
17080;DHT22;8655;57.106;-2.088;2022-07-10T09:24:16;22.30;61.20
17080;DHT22;8655;57.106;-2.088;2022-07-10T09:29:19;22.30;61.20
17080;DHT22;8655;57.106;-2.088;2022-07-10T09:34:38;22.30;61.20
17080;DHT22;8655;57.106;-2.088;2022-07-10T09:39:56;22.30;61.20
17080;DHT22;8655;57.106;-2.088;2022-07-10T09:42:40;22.30;61.20
17080;DHT22;8655;57.106;-2.088;2022-07-10T09:47:39;22.30;61.20
17080;DHT22;8655;57.106;-2.088;2022-07-10T09:52:53;22.30;61.20
17080;DHT22;8655;57.106;-2.088;2022-07-10T09:55:21;22.30;61.20
17080;DHT22;8655;57.106;-2.088;2022-07-10T09:57:56;22.30;61.20
17080;DHT22;8655;57.106;-2.088;2022-07-10T10:00:24;22.30;61.30
17080;DHT22;8655;57.106;-2.088;2022-07-10T10:03:15;22.30;61.20
17080;DHT22;8655;57.106;-2.088;2022-07-10T10:08:17;22.40;61.40
17080;DHT22;8655;57.106;-2.088;2022-07-10T10:10:46;22.40;61.40
17080;DHT22;8655;57.106;-2.088;2022-07-10T10:13:16;22.40;61.40
17080;DHT22;8655;57.106;-2.088;2022-07-10T10:15:43;22.40;61.40
17080;DHT22;8655;57.106;-2.088;2022-07-10T10:18:10;22.40;61.40
17080;DHT22;8655;57.106;-2.088;2022-07-10T10:20:37;22.40;61.40
17080;DHT22;8655;57.106;-2.088;2022-07-10T10:23:09;22.40;61.40
17080;DHT22;8655;57.106;-2.088;2022-07-10T10:25:37;22.40;61.40
17080;DHT22;8655;57.106;-2.088;2022-07-10T10:28:06;22.40;61.40
17080;DHT22;8655;57.106;-2.088;2022-07-10T10:30:33;22.40;61.40
17080;DHT22;8655;57.106;-2.088;2022-07-10T10:33:01;22.40;61.40
17080;DHT22;8655;57.106;-2.088;2022-07-10T10:35:46;22.40;61.40
17080;DHT22;8655;57.106;-2.088;2022-07-10T10:38:15;22.40;61.40
17080;DHT22;8655;57.106;-2.088;2022-07-10T10:40:41;22.50;61.50
17080;DHT22;8655;57.106;-2.088;2022-07-10T10:43:20;22.50;61.50
17080;DHT22;8655;57.106;-2.088;2022-07-10T10:45:47;22.50;61.50
17080;DHT22;8655;57.106;-2.088;2022-07-10T10:48:14;22.50;61.50
17080;DHT22;8655;57.106;-2.088;2022-07-10T10:50:53;22.50;61.50
17080;DHT22;8655;57.106;-2.088;2022-07-10T10:58:40;22.50;61.50
17080;DHT22;8655;57.106;-2.088;2022-07-10T11:01:28;22.50;61.50
17080;DHT22;8655;57.106;-2.088;2022-07-10T11:06:51;22.50;61.50
17080;DHT22;8655;57.106;-2.088;2022-07-10T11:09:32;22.60;61.60
17080;DHT22;8655;57.106;-2.088;2022-07-10T11:12:02;22.60;61.70
17080;DHT22;8655;57.106;-2.088;2022-07-10T11:14:30;22.60;61.70
17080;DHT22;8655;57.106;-2.088;2022-07-10T11:16:56;22.60;61.60
17080;DHT22;8655;57.106;-2.088;2022-07-10T11:19:29;22.60;61.70
17080;DHT22;8655;57.106;-2.088;2022-07-10T11:28:05;22.60;61.70
17080;DHT22;8655;57.106;-2.088;2022-07-10T11:33:12;22.60;61.70
17080;DHT22;8655;57.106;-2.088;2022-07-10T11:35:39;22.60;61.70
17080;DHT22;8655;57.106;-2.088;2022-07-10T11:38:05;22.60;61.70
17080;DHT22;8655;57.106;-2.088;2022-07-10T11:40:38;22.70;61.80
17080;DHT22;8655;57.106;-2.088;2022-07-10T11:43:04;22.70;61.80
17080;DHT22;8655;57.106;-2.088;2022-07-10T11:45:33;22.70;61.80
17080;DHT22;8655;57.106;-2.088;2022-07-10T11:48:02;22.70;61.80
17080;DHT22;8655;57.106;-2.088;2022-07-10T11:50:34;22.70;61.80
17080;DHT22;8655;57.106;-2.088;2022-07-10T11:53:01;22.70;61.80
17080;DHT22;8655;57.106;-2.088;2022-07-10T11:55:27;22.70;61.80
17080;DHT22;8655;57.106;-2.088;2022-07-10T11:57:54;22.70;61.80
17080;DHT22;8655;57.106;-2.088;2022-07-10T12:00:30;22.70;61.80
17080;DHT22;8655;57.106;-2.088;2022-07-10T12:02:57;22.70;61.80
17080;DHT22;8655;57.106;-2.088;2022-07-10T12:05:40;22.80;61.90
17080;DHT22;8655;57.106;-2.088;2022-07-10T12:08:07;22.80;61.90
17080;DHT22;8655;57.106;-2.088;2022-07-10T12:10:34;22.80;61.90
17080;DHT22;8655;57.106;-2.088;2022-07-10T12:13:13;22.80;61.90
17080;DHT22;8655;57.106;-2.088;2022-07-10T12:15:41;22.80;61.90
17080;DHT22;8655;57.106;-2.088;2022-07-10T12:18:09;22.80;61.90
17080;DHT22;8655;57.106;-2.088;2022-07-10T12:20:40;22.80;61.90
17080;DHT22;8655;57.106;-2.088;2022-07-10T12:23:11;22.80;61.90
17080;DHT22;8655;57.106;-2.088;2022-07-10T12:25:42;22.80;61.90
17080;DHT22;8655;57.106;-2.088;2022-07-10T12:28:09;22.80;61.90
17080;DHT22;8655;57.106;-2.088;2022-07-10T12:30:48;22.80;61.90
17080;DHT22;8655;57.106;-2.088;2022-07-10T12:33:22;22.90;62.00
17080;DHT22;8655;57.106;-2.088;2022-07-10T12:35:55;22.90;62.00
17080;DHT22;8655;57.106;-2.088;2022-07-10T12:38:29;22.90;62.00
17080;DHT22;8655;57.106;-2.088;2022-07-10T12:41:09;22.90;62.00
17080;DHT22;8655;57.106;-2.088;2022-07-10T12:43:36;22.90;62.00
17080;DHT22;8655;57.106;-2.088;2022-07-10T12:48:37;22.90;62.10
17080;DHT22;8655;57.106;-2.088;2022-07-10T12:53:47;23.00;62.20
17080;DHT22;8655;57.106;-2.088;2022-07-10T12:56:35;22.90;62.10
17080;DHT22;8655;57.106;-2.088;2022-07-10T12:59:04;23.00;62.20
17080;DHT22;8655;57.106;-2.088;2022-07-10T13:01:41;23.00;62.20
17080;DHT22;8655;57.106;-2.088;2022-07-10T13:04:07;23.00;62.20
17080;DHT22;8655;57.106;-2.088;2022-07-10T13:06:38;23.00;62.90
17080;DHT22;8655;57.106;-2.088;2022-07-10T13:09:25;23.00;62.20
17080;DHT22;8655;57.106;-2.088;2022-07-10T13:11:52;23.00;62.20
17080;DHT22;8655;57.106;-2.088;2022-07-10T13:14:19;23.00;62.20
17080;DHT22;8655;57.106;-2.088;2022-07-10T13:16:45;23.00;62.20
17080;DHT22;8655;57.106;-2.088;2022-07-10T13:19:11;23.00;62.20
17080;DHT22;8655;57.106;-2.088;2022-07-10T13:21:36;23.00;62.20
17080;DHT22;8655;57.106;-2.088;2022-07-10T13:24:03;23.10;62.30
17080;DHT22;8655;57.106;-2.088;2022-07-10T13:26:29;23.00;62.20
17080;DHT22;8655;57.106;-2.088;2022-07-10T13:28:57;23.10;62.30
17080;DHT22;8655;57.106;-2.088;2022-07-10T13:31:23;23.10;62.30
17080;DHT22;8655;57.106;-2.088;2022-07-10T13:33:49;23.10;62.30
17080;DHT22;8655;57.106;-2.088;2022-07-10T13:36:15;23.10;62.30
17080;DHT22;8655;57.106;-2.088;2022-07-10T13:38:40;23.10;62.30
17080;DHT22;8655;57.106;-2.088;2022-07-10T13:41:08;23.10;62.30
17080;DHT22;8655;57.106;-2.088;2022-07-10T13:43:33;23.10;62.30
17080;DHT22;8655;57.106;-2.088;2022-07-10T13:46:01;23.10;62.40
17080;DHT22;8655;57.106;-2.088;2022-07-10T13:48:28;23.10;62.30
17080;DHT22;8655;57.106;-2.088;2022-07-10T13:50:54;23.10;62.30
17080;DHT22;8655;57.106;-2.088;2022-07-10T13:53:20;23.10;62.30
17080;DHT22;8655;57.106;-2.088;2022-07-10T13:55:46;23.20;62.40
17080;DHT22;8655;57.106;-2.088;2022-07-10T13:58:12;23.20;62.40
17080;DHT22;8655;57.106;-2.088;2022-07-10T14:00:38;23.20;62.40
17080;DHT22;8655;57.106;-2.088;2022-07-10T14:03:05;23.20;62.40
17080;DHT22;8655;57.106;-2.088;2022-07-10T14:05:31;23.20;62.40
17080;DHT22;8655;57.106;-2.088;2022-07-10T14:07:58;23.20;62.40
17080;DHT22;8655;57.106;-2.088;2022-07-10T14:10:24;23.20;62.40
17080;DHT22;8655;57.106;-2.088;2022-07-10T14:12:54;23.20;62.40
17080;DHT22;8655;57.106;-2.088;2022-07-10T14:15:20;23.20;62.40
17080;DHT22;8655;57.106;-2.088;2022-07-10T14:17:46;23.20;62.40
17080;DHT22;8655;57.106;-2.088;2022-07-10T14:20:12;23.20;62.40
17080;DHT22;8655;57.106;-2.088;2022-07-10T14:22:38;23.20;62.40
17080;DHT22;8655;57.106;-2.088;2022-07-10T14:25:05;23.20;62.40
17080;DHT22;8655;57.106;-2.088;2022-07-10T14:27:31;23.20;62.40
17080;DHT22;8655;57.106;-2.088;2022-07-10T14:29:58;23.20;62.40
17080;DHT22;8655;57.106;-2.088;2022-07-10T14:32:24;23.30;62.50
17080;DHT22;8655;57.106;-2.088;2022-07-10T14:34:50;23.30;62.50
17080;DHT22;8655;57.106;-2.088;2022-07-10T14:37:16;23.30;62.50
17080;DHT22;8655;57.106;-2.088;2022-07-10T14:39:42;23.30;62.50
17080;DHT22;8655;57.106;-2.088;2022-07-10T14:42:08;23.30;62.50
17080;DHT22;8655;57.106;-2.088;2022-07-10T14:44:35;23.30;62.50
17080;DHT22;8655;57.106;-2.088;2022-07-10T14:47:01;23.30;62.50
17080;DHT22;8655;57.106;-2.088;2022-07-10T14:49:26;23.30;62.50
17080;DHT22;8655;57.106;-2.088;2022-07-10T14:51:52;23.30;62.50
17080;DHT22;8655;57.106;-2.088;2022-07-10T14:54:20;23.30;62.40
17080;DHT22;8655;57.106;-2.088;2022-07-10T14:56:45;23.30;62.50
17080;DHT22;8655;57.106;-2.088;2022-07-10T14:59:11;23.30;62.50
17080;DHT22;8655;57.106;-2.088;2022-07-10T15:01:37;23.30;62.50
17080;DHT22;8655;57.106;-2.088;2022-07-10T15:04:03;23.30;62.50
17080;DHT22;8655;57.106;-2.088;2022-07-10T15:06:28;23.30;62.50
17080;DHT22;8655;57.106;-2.088;2022-07-10T15:08:54;23.30;62.50
17080;DHT22;8655;57.106;-2.088;2022-07-10T15:11:21;23.30;62.40
17080;DHT22;8655;57.106;-2.088;2022-07-10T15:13:51;23.40;62.60
17080;DHT22;8655;57.106;-2.088;2022-07-10T15:16:18;23.40;62.50
17080;DHT22;8655;57.106;-2.088;2022-07-10T15:18:44;23.40;62.50
17080;DHT22;8655;57.106;-2.088;2022-07-10T15:21:10;23.40;62.60
17080;DHT22;8655;57.106;-2.088;2022-07-10T15:23:37;23.40;62.50
17080;DHT22;8655;57.106;-2.088;2022-07-10T15:26:03;23.40;62.50
17080;DHT22;8655;57.106;-2.088;2022-07-10T15:28:30;23.40;62.50
17080;DHT22;8655;57.106;-2.088;2022-07-10T15:30:56;23.40;62.50
17080;DHT22;8655;57.106;-2.088;2022-07-10T15:33:21;23.40;62.50
17080;DHT22;8655;57.106;-2.088;2022-07-10T15:35:47;23.40;62.50
17080;DHT22;8655;57.106;-2.088;2022-07-10T15:38:13;23.40;62.50
17080;DHT22;8655;57.106;-2.088;2022-07-10T15:40:39;23.40;62.50
17080;DHT22;8655;57.106;-2.088;2022-07-10T15:43:05;23.40;62.60
17080;DHT22;8655;57.106;-2.088;2022-07-10T15:45:31;23.40;62.50
17080;DHT22;8655;57.106;-2.088;2022-07-10T15:47:57;23.40;62.50
17080;DHT22;8655;57.106;-2.088;2022-07-10T15:50:23;23.40;62.50
17080;DHT22;8655;57.106;-2.088;2022-07-10T15:52:49;23.40;62.50
17080;DHT22;8655;57.106;-2.088;2022-07-10T15:55:14;23.40;62.50
17080;DHT22;8655;57.106;-2.088;2022-07-10T15:57:40;23.40;62.50
17080;DHT22;8655;57.106;-2.088;2022-07-10T16:00:07;23.50;62.60
17080;DHT22;8655;57.106;-2.088;2022-07-10T16:02:34;23.50;62.60
17080;DHT22;8655;57.106;-2.088;2022-07-10T16:05:00;23.50;62.60
17080;DHT22;8655;57.106;-2.088;2022-07-10T16:07:26;23.50;62.60
17080;DHT22;8655;57.106;-2.088;2022-07-10T16:09:52;23.50;62.60
17080;DHT22;8655;57.106;-2.088;2022-07-10T16:12:18;23.50;62.60
17080;DHT22;8655;57.106;-2.088;2022-07-10T16:14:43;23.50;62.60